Time;durP1;ratioP1;P1;durP2;ratioP2;P2;SDS_P1;SDS_P2;PMS_P1;PMS_P2;Temp;Humidity;BMP_temperature;BMP_pressure;BME280_temperature;BME280_humidity;BME280_pressure;Samples;Min_cycle;Max_cycle;Signal;HPM_P1;HPM_P2
2023/03/01 00:01:39;;;;;;;316.83;56.67;;;-2.00;99.90;;;-2.18;85.80;99664.31;4877776;29;20232;-74
2023/03/01 00:04:06;;;;;;;340.57;63.57;;;-2.00;99.90;;;-2.27;86.18;99671.66;4890444;29;20308;-74
2023/03/01 00:06:33;;;;;;;325.83;57.77;;;-2.00;99.90;;;-2.34;86.30;99675.66;4890686;29;20352;-74
2023/03/01 00:09:00;;;;;;;326.33;58.80;;;-2.10;99.90;;;-2.32;86.66;99686.97;4890763;29;20267;-74
2023/03/01 00:11:31;;;;;;;321.27;57.80;;;-2.10;99.90;;;-2.34;86.78;99688.59;4889435;29;20313;-74
2023/03/01 00:14:01;;;;;;;337.53;62.40;;;-2.10;99.90;;;-2.30;86.93;99697.41;4891025;29;20267;-72
2023/03/01 00:16:39;;;;;;;338.73;62.90;;;-2.10;99.90;;;-2.32;86.96;99699.91;4890221;29;20251;-75
2023/03/01 00:19:11;;;;;;;322.53;58.20;;;-2.70;99.90;;;-2.28;87.11;99704.44;4890785;29;20251;-72
2023/03/01 00:21:39;;;;;;;313.97;55.33;;;-2.10;99.90;;;-2.30;86.91;99712.94;4890988;29;20243;-75
2023/03/01 00:24:07;;;;;;;328.87;58.53;;;-1.90;99.90;;;-2.21;86.82;99730.63;4894342;29;20292;-74
2023/03/01 00:26:34;;;;;;;328.63;59.30;;;-2.10;99.90;;;-2.29;87.06;99731.16;4892976;29;20259;-74
2023/03/01 00:29:01;;;;;;;330.57;60.07;;;-2.10;99.90;;;-2.19;87.14;99748.00;4888486;29;20613;-73
2023/03/01 00:31:31;;;;;;;322.97;57.63;;;-2.10;99.90;;;-2.10;86.89;99756.22;4890780;29;20295;-75
2023/03/01 00:34:04;;;;;;;322.63;57.23;;;-2.00;99.90;;;-2.01;86.54;99761.84;4888132;29;20691;-74
2023/03/01 00:36:35;;;;;;;330.00;62.03;;;-1.80;99.90;;;-2.04;86.46;99766.88;4888457;29;20371;-73
2023/03/01 00:39:05;;;;;;;338.17;65.53;;;-1.80;99.90;;;-2.01;86.71;99771.31;4890491;29;20287;-74
2023/03/01 00:41:34;;;;;;;320.37;58.80;;;-1.80;99.90;;;-2.01;86.26;99781.69;4892720;29;20246;-73
2023/03/01 00:44:01;;;;;;;334.57;61.43;;;-1.20;99.90;;;-1.95;86.27;99789.75;4891614;29;20263;-73
2023/03/01 00:46:30;;;;;;;320.30;57.23;;;-1.80;99.90;;;-2.01;86.31;99786.88;4892516;29;20273;-75
2023/03/01 00:48:57;;;;;;;347.23;65.27;;;-1.80;99.90;;;-2.03;86.17;99789.38;4889436;29;20326;-74
2023/03/01 00:51:28;;;;;;;327.63;60.50;;;-1.80;99.90;;;-2.06;86.41;99799.59;4893066;29;20243;-74
2023/03/01 00:53:58;;;;;;;309.33;53.90;;;-1.80;99.90;;;-2.00;86.46;99817.16;4892787;29;20247;-75
2023/03/01 00:56:27;;;;;;;336.60;63.27;;;-1.80;99.90;;;-2.13;86.68;99809.59;4893021;29;20235;-74
2023/03/01 00:58:54;;;;;;;322.57;57.20;;;-1.90;99.90;;;-2.17;86.88;99818.91;4894230;29;20299;-74
2023/03/01 01:01:27;;;;;;;323.87;58.03;;;-1.90;99.90;;;-2.17;86.83;99821.50;4890448;29;20315;-75
2023/03/01 01:03:57;;;;;;;319.10;56.57;;;-2.00;99.90;;;-2.17;87.08;99828.38;4891361;29;20695;-74
2023/03/01 01:06:35;;;;;;;331.77;61.03;;;-2.00;99.90;;;-2.17;87.01;99829.28;4876161;29;20271;-75
2023/03/01 01:09:05;;;;;;;324.07;58.93;;;-2.00;99.90;;;-2.24;87.13;99826.28;4889008;29;20636;-74
2023/03/01 01:11:35;;;;;;;327.07;59.60;;;-2.00;99.90;;;-2.23;87.29;99828.06;4890626;29;20769;-74
2023/03/01 01:14:02;;;;;;;333.43;61.73;;;-2.00;99.90;;;-2.21;87.49;99834.22;4889199;29;20315;-72
2023/03/01 01:16:30;;;;;;;324.87;59.53;;;-2.00;99.90;;;-2.23;87.53;99835.84;4888057;29;20259;-74
2023/03/01 01:18:58;;;;;;;324.63;58.70;;;-2.00;99.90;;;-2.24;87.62;99842.72;4894891;29;20307;-74
2023/03/01 01:21:26;;;;;;;328.83;59.63;;;-2.00;99.90;;;-2.27;87.72;99851.22;4877067;29;20246;-74
2023/03/01 01:23:57;;;;;;;316.77;60.60;;;-2.10;99.90;;;-2.31;87.89;99841.53;4878523;29;20232;-74
2023/03/01 01:26:31;;;;;;;315.17;56.10;;;-1.90;99.90;;;-2.34;87.98;99848.25;4893272;29;20652;-75
2023/03/01 01:29:00;;;;;;;316.83;55.30;;;-2.10;99.90;;;-2.34;88.27;99858.63;4875241;29;20299;-73
2023/03/01 01:31:28;;;;;;;321.10;56.53;;;-2.10;99.90;;;-2.38;88.36;99859.28;4876639;29;20271;-73
2023/03/01 01:33:56;;;;;;;315.97;55.97;;;-2.20;99.90;;;-2.40;88.92;99864.38;4888612;29;20282;-74
2023/03/01 01:36:24;;;;;;;319.70;56.63;;;-2.20;99.90;;;-2.39;88.86;99873.91;4888012;29;20294;-73
2023/03/01 01:38:51;;;;;;;312.27;54.47;;;-2.00;99.90;;;-2.42;89.11;99878.06;4888624;29;20271;-74
2023/03/01 01:41:20;;;;;;;315.73;56.23;;;-2.20;99.90;;;-2.49;89.26;99874.25;4887891;29;20251;-72
2023/03/01 01:44:10;;;;;;;326.67;59.57;;;-2.30;99.90;;;-2.44;89.33;99870.19;4891820;29;20234;-73
2023/03/01 01:47:01;;;;;;;321.97;57.27;;;-2.30;99.90;;;-2.55;89.59;99873.94;4874734;29;20247;-74
2023/03/01 01:49:42;;;;;;;317.70;56.10;;;-2.30;99.90;;;-2.54;89.79;99875.72;4884984;29;20266;-74
2023/03/01 01:52:35;;;;;;;321.23;56.50;;;-2.40;99.90;;;-2.61;90.27;99876.19;4878809;29;20235;-74
2023/03/01 01:55:16;;;;;;;319.07;56.63;;;-2.40;99.90;;;-2.62;90.47;99877.88;4877743;29;20734;-74
2023/03/01 01:57:50;;;;;;;312.90;53.87;;;-2.40;99.90;;;-2.58;90.54;99891.91;4877646;29;20243;-74
2023/03/01 02:00:22;;;;;;;316.57;56.13;;;-2.40;99.90;;;-2.54;90.63;99901.59;4881066;29;20591;-73
2023/03/01 02:03:01;;;;;;;325.13;57.57;;;-2.30;99.90;;;-2.59;90.88;99903.06;4884032;29;20243;-73
2023/03/01 02:06:11;;;;;;;311.67;53.93;;;-2.40;99.90;;;-2.55;90.84;99917.94;4890998;29;20263;-74
2023/03/01 02:08:41;;;;;;;316.97;56.03;;;-2.40;99.90;;;-2.63;90.96;99909.75;4867181;29;20248;-73
2023/03/01 02:11:10;;;;;;;318.80;56.57;;;-2.40;99.90;;;-2.60;91.20;99911.63;4876572;29;20736;-73
2023/03/01 02:13:37;;;;;;;351.17;65.93;;;-2.40;99.90;;;-2.61;91.06;99909.81;4877279;29;20240;-74
2023/03/01 02:16:09;;;;;;;311.67;54.53;;;-2.40;99.90;;;-2.57;90.79;99919.56;4893026;29;20288;-74
2023/03/01 02:18:40;;;;;;;326.10;68.73;;;-2.40;99.90;;;-2.60;91.17;99916.81;4875541;29;20780;-74
2023/03/01 02:21:42;;;;;;;327.83;59.80;;;-2.40;99.90;;;-2.66;91.36;99919.94;4870581;29;20235;-74
2023/03/01 02:24:38;;;;;;;323.20;57.30;;;-2.40;99.90;;;-2.61;91.41;99927.94;4876180;29;20262;-74
2023/03/01 02:27:05;;;;;;;315.43;67.37;;;-2.40;99.90;;;-2.58;91.35;99934.22;4877997;29;20243;-73
2023/03/01 02:29:32;;;;;;;330.30;60.47;;;-2.40;99.90;;;-2.58;91.33;99935.91;4886270;29;20266;-73
2023/03/01 02:32:03;;;;;;;328.30;59.07;;;-2.40;99.90;;;-2.66;91.29;99942.34;4869970;29;20251;-74
2023/03/01 02:34:32;;;;;;;310.53;55.87;;;-2.40;99.90;;;-2.66;91.56;99947.53;4875536;29;20310;-74
2023/03/01 02:37:11;;;;;;;315.23;55.63;;;-2.50;99.90;;;-2.69;91.61;99944.75;4889069;29;20243;-74
2023/03/01 02:39:47;;;;;;;327.17;60.40;;;-2.50;99.90;;;-2.70;91.89;99953.34;4900185;29;20287;-74
2023/03/01 02:42:28;;;;;;;305.17;56.03;;;-1.70;99.90;;;-2.62;91.91;99965.88;4874580;29;20294;-74
2023/03/01 02:44:55;;;;;;;313.77;57.50;;;-2.40;99.90;;;-2.53;91.73;99980.16;4875884;29;20240;-73
2023/03/01 02:47:23;;;;;;;314.73;56.53;;;-2.30;99.90;;;-2.63;91.49;99971.88;4878099;29;20380;-73
2023/03/01 02:49:50;;;;;;;320.87;56.90;;;-2.40;99.90;;;-2.53;91.55;99977.56;4892798;29;20243;-74
2023/03/01 02:52:48;;;;;;;313.13;55.10;;;-2.40;99.90;;;-2.48;91.19;99989.94;4890398;29;20232;-74
2023/03/01 02:55:17;;;;;;;311.83;63.70;;;-2.30;99.90;;;-2.43;91.08;99997.97;4904115;29;20299;-74
2023/03/01 02:57:50;;;;;;;320.13;61.17;;;-2.20;99.90;;;-2.45;91.10;99989.22;4875335;29;20334;-73
2023/03/01 03:00:27;;;;;;;324.40;65.33;;;-1.60;99.90;;;-2.48;91.04;99981.28;4888793;29;20292;-74
2023/03/01 03:02:56;;;;;;;313.70;54.63;;;-2.30;99.90;;;-2.57;91.18;99979.09;4857054;29;20228;-74
2023/03/01 03:05:28;;;;;;;318.27;56.90;;;-2.30;99.90;;;-2.61;91.28;99978.00;4888572;29;20330;-73
2023/03/01 03:07:57;;;;;;;316.30;56.73;;;-2.40;99.90;;;-2.62;91.50;99977.94;4890734;29;20242;-75
2023/03/01 03:10:34;;;;;;;335.27;61.43;;;-2.30;99.90;;;-2.62;91.88;99975.34;4871340;29;20243;-74
2023/03/01 03:13:11;;;;;;;312.70;54.63;;;-2.40;99.90;;;-2.54;91.53;99991.31;4888404;29;20232;-74
2023/03/01 03:15:39;;;;;;;317.00;56.47;;;-2.40;99.90;;;-2.50;91.62;99995.84;4885816;29;20313;-73
2023/03/01 03:18:13;;;;;;;318.33;56.70;;;-2.30;99.90;;;-2.46;91.61;100006.47;4889392;29;20240;-74
2023/03/01 03:20:42;;;;;;;320.57;56.70;;;-2.30;99.90;;;-2.51;91.42;100012.19;4886918;29;20236;-73
2023/03/01 03:23:09;;;;;;;315.80;57.83;;;-2.30;99.90;;;-2.48;91.54;100010.66;4889904;29;20260;-75
2023/03/01 03:25:37;;;;;;;319.73;56.13;;;-2.30;99.90;;;-2.52;91.39;100006.13;4887902;29;20243;-74
2023/03/01 03:28:09;;;;;;;335.03;63.60;;;-2.30;99.90;;;-2.56;91.61;100006.78;4889897;29;20284;-75
2023/03/01 03:30:40;;;;;;;338.90;65.57;;;-2.30;99.90;;;-2.64;91.71;100006.31;4886062;29;20238;-75
2023/03/01 03:33:07;;;;;;;317.77;56.37;;;-2.40;99.90;;;-2.69;91.87;100007.78;4888470;29;20240;-74
2023/03/01 03:35:47;;;;;;;385.53;80.73;;;-2.40;99.90;;;-2.81;92.45;100014.88;4879158;29;20239;-76
2023/03/01 03:38:17;;;;;;;379.37;77.77;;;-2.50;99.90;;;-2.85;92.42;100017.19;4867030;29;20235;-74
2023/03/01 03:40:49;;;;;;;319.00;57.90;;;-2.60;99.90;;;-2.81;93.03;100024.31;4886644;29;20255;-73
2023/03/01 03:43:22;;;;;;;325.43;58.30;;;-2.60;99.90;;;-2.79;92.87;100036.53;4886038;29;20236;-74
2023/03/01 03:45:51;;;;;;;357.87;70.13;;;-2.60;99.90;;;-2.89;93.13;100042.00;4880213;29;20255;-74
2023/03/01 03:48:18;;;;;;;330.90;61.00;;;-2.60;99.90;;;-2.86;93.54;100049.94;4878113;29;20243;-74
2023/03/01 03:50:52;;;;;;;356.10;69.17;;;-2.70;99.90;;;-2.96;93.61;100058.00;4882274;29;20243;-74
2023/03/01 03:53:23;;;;;;;344.93;66.50;;;-2.70;99.90;;;-2.90;94.13;100071.28;4882115;29;20901;-73
2023/03/01 03:55:51;;;;;;;316.10;58.47;;;-2.70;99.90;;;-2.84;94.37;100081.09;4888071;29;20228;-75
2023/03/01 03:58:20;;;;;;;316.87;56.17;;;-2.70;99.90;;;-2.82;94.29;100085.53;4888850;29;20239;-75
2023/03/01 04:00:55;;;;;;;333.37;59.77;;;-2.60;99.90;;;-2.79;94.42;100095.16;4884889;29;20262;-74
2023/03/01 04:03:25;;;;;;;363.33;176.07;;;-2.60;99.90;;;-2.76;94.32;100104.00;4888711;29;20243;-75
2023/03/01 04:05:53;;;;;;;362.13;216.17;;;-2.60;99.90;;;-2.72;94.24;100111.13;4895968;29;20239;-74
2023/03/01 04:08:23;;;;;;;353.30;196.70;;;-2.50;99.90;;;-2.74;94.29;100109.25;4897292;29;20283;-74
2023/03/01 04:10:57;;;;;;;384.33;236.77;;;-2.50;99.90;;;-2.75;94.22;100107.47;4892551;29;20231;-77
2023/03/01 04:13:27;;;;;;;367.40;229.87;;;-2.50;99.90;;;-2.71;94.50;100117.19;4863954;29;20323;-74
2023/03/01 04:15:55;;;;;;;330.27;59.50;;;-2.50;99.90;;;-2.73;94.37;100118.81;4877882;29;20322;-73
2023/03/01 04:18:24;;;;;;;331.13;59.47;;;-2.50;99.90;;;-2.83;94.62;100112.22;4891317;29;20371;-73
2023/03/01 04:20:55;;;;;;;322.27;56.93;;;-2.40;99.90;;;-2.77;95.02;100114.25;4889478;29;20228;-74
2023/03/01 04:23:22;;;;;;;307.50;55.87;;;-2.60;99.90;;;-2.80;95.02;100127.03;4896426;29;20231;-74
2023/03/01 04:25:57;;;;;;;310.80;53.83;;;-2.60;99.90;;;-2.74;94.95;100142.91;4893757;29;20244;-73
2023/03/01 04:28:29;;;;;;;308.10;53.43;;;-2.60;99.90;;;-2.71;95.08;100151.72;4894949;29;20243;-75
2023/03/01 04:30:58;;;;;;;323.23;58.47;;;-2.50;99.90;;;-2.71;94.88;100150.84;4875582;29;20251;-75
2023/03/01 04:33:25;;;;;;;328.23;58.50;;;-2.50;99.90;;;-2.74;95.11;100155.84;4883826;29;20307;-73
2023/03/01 04:35:52;;;;;;;330.27;60.10;;;-2.50;99.90;;;-2.75;95.43;100161.81;4873511;29;20232;-75
2023/03/01 04:38:21;;;;;;;324.10;57.90;;;-2.50;99.90;;;-2.66;95.01;100172.69;4871999;29;20238;-73
2023/03/01 04:40:48;;;;;;;314.97;55.97;;;-2.50;99.90;;;-2.65;94.95;100177.06;4887146;29;20235;-74
2023/03/01 04:43:15;;;;;;;330.43;61.10;;;-2.40;99.90;;;-2.65;94.58;100188.31;4873945;29;20267;-75
2023/03/01 04:45:42;;;;;;;332.43;61.47;;;-2.40;99.90;;;-2.63;94.89;100181.53;4884288;29;20359;-74
2023/03/01 04:48:09;;;;;;;331.87;76.73;;;-2.40;99.90;;;-2.74;95.09;100181.72;4883562;29;20239;-74
2023/03/01 04:50:36;;;;;;;318.57;57.27;;;-2.10;99.90;;;-2.70;95.12;100187.16;4891807;29;20273;-73
2023/03/01 04:53:04;;;;;;;350.43;68.47;;;-2.50;99.90;;;-2.70;95.36;100191.44;4891533;29;20319;-73
2023/03/01 04:55:31;;;;;;;346.97;66.83;;;-2.50;99.90;;;-2.75;95.47;100205.81;4888387;29;20240;-74
2023/03/01 04:57:58;;;;;;;321.37;60.40;;;-2.50;99.90;;;-2.81;95.56;100198.59;4892064;29;20647;-73
2023/03/01 05:00:26;;;;;;;331.80;61.03;;;-2.60;99.90;;;-2.76;95.71;100204.94;4888623;29;20243;-72
2023/03/01 05:02:59;;;;;;;335.73;62.13;;;-2.60;99.90;;;-2.83;95.97;100209.66;4859703;29;20247;-72
2023/03/01 05:05:34;;;;;;;302.67;53.20;;;-2.60;99.90;;;-2.85;96.21;100213.84;4875846;29;20239;-74
2023/03/01 05:08:07;;;;;;;313.93;55.13;;;-2.60;99.90;;;-2.80;96.25;100220.19;4889298;29;20235;-74
2023/03/01 05:10:38;;;;;;;347.67;127.67;;;-2.60;99.90;;;-2.86;96.24;100223.31;4906005;29;20267;-73
2023/03/01 05:13:06;;;;;;;325.13;137.47;;;-2.60;99.90;;;-2.86;96.29;100231.06;4893137;29;20786;-73
2023/03/01 05:15:33;;;;;;;321.00;93.17;;;-2.60;99.90;;;-2.82;96.44;100239.91;4892683;29;20249;-75
2023/03/01 05:18:00;;;;;;;323.73;95.87;;;-2.60;99.90;;;-2.87;96.44;100242.22;4891102;29;20234;-74
2023/03/01 05:20:30;;;;;;;323.80;85.30;;;-2.80;99.90;;;-2.83;96.65;100253.66;4893516;29;20243;-74
2023/03/01 05:22:59;;;;;;;343.27;91.20;;;-2.60;99.90;;;-2.79;96.63;100258.19;4893356;29;20243;-74
2023/03/01 05:25:32;;;;;;;367.93;116.07;;;-2.60;99.90;;;-2.82;96.58;100258.91;4907508;29;20299;-74
2023/03/01 05:28:04;;;;;;;324.23;80.10;;;-2.60;99.90;;;-2.81;96.92;100263.28;4893953;29;20250;-75
2023/03/01 05:30:33;;;;;;;326.37;84.57;;;-2.60;99.90;;;-2.72;96.66;100276.75;4898181;29;20307;-73
2023/03/01 05:33:01;;;;;;;329.97;81.33;;;-2.50;99.90;;;-2.61;96.71;100295.50;4873454;29;20231;-74
2023/03/01 05:35:29;;;;;;;325.60;82.53;;;-2.40;99.90;;;-2.63;96.39;100298.00;4893753;29;20779;-73
2023/03/01 05:37:56;;;;;;;310.90;71.23;;;-2.40;99.90;;;-2.59;96.40;100299.13;4893621;29;20238;-73
2023/03/01 05:40:24;;;;;;;314.90;73.30;;;-2.40;99.90;;;-2.58;96.55;100295.72;4877734;29;20708;-75
2023/03/01 05:42:56;;;;;;;328.30;74.80;;;-2.40;99.90;;;-2.53;96.25;100311.53;4893838;29;20330;-74
2023/03/01 05:45:26;;;;;;;326.57;73.30;;;-2.30;99.90;;;-2.59;96.27;100301.72;4876022;29;20239;-74
2023/03/01 05:47:58;;;;;;;318.60;72.47;;;-2.40;99.90;;;-2.52;96.36;100309.03;4887085;29;20239;-73
2023/03/01 05:50:29;;;;;;;332.47;82.50;;;-2.30;99.90;;;-2.54;96.48;100312.34;4884509;29;20312;-75
2023/03/01 05:53:09;;;;;;;342.57;77.33;;;-2.30;99.90;;;-2.53;96.56;100320.19;4881865;29;20268;-76
2023/03/01 05:55:36;;;;;;;324.83;70.37;;;-2.30;99.90;;;-2.49;96.58;100326.44;4888144;29;20235;-75
2023/03/01 05:58:08;;;;;;;319.87;70.43;;;-2.30;99.90;;;-2.50;96.57;100335.91;4888764;29;20236;-74
2023/03/01 06:00:36;;;;;;;327.53;73.53;;;-1.90;99.90;;;-2.50;96.64;100333.31;4878656;29;20243;-74
2023/03/01 06:03:03;;;;;;;324.37;69.93;;;-2.30;99.90;;;-2.49;96.72;100352.34;4895259;29;20299;-74
2023/03/01 06:05:31;;;;;;;320.73;67.13;;;-2.00;99.90;;;-2.49;96.92;100344.56;4893473;29;20755;-73
2023/03/01 06:08:02;;;;;;;324.27;68.53;;;-1.60;99.90;;;-2.54;96.88;100348.56;4897651;29;20322;-74
2023/03/01 06:10:29;;;;;;;322.60;66.50;;;-2.30;99.90;;;-2.59;97.28;100351.78;4893518;29;20247;-78
2023/03/01 06:12:57;;;;;;;330.07;68.90;;;-2.40;99.90;;;-2.58;97.60;100360.44;4888766;29;20296;-77
2023/03/01 06:15:25;;;;;;;342.63;74.87;;;-2.40;99.90;;;-2.54;97.86;100382.22;4888649;29;20236;-77
2023/03/01 06:17:56;;;;;;;341.60;72.80;;;-2.30;99.90;;;-2.53;98.00;100382.31;4887764;29;20246;-77
2023/03/01 06:20:28;;;;;;;335.07;71.70;;;-2.30;99.90;;;-2.50;98.26;100390.28;4879659;29;20246;-77
2023/03/01 06:22:55;;;;;;;351.33;77.47;;;-2.30;99.90;;;-2.46;98.24;100404.31;4857786;29;20295;-78
2023/03/01 06:25:25;;;;;;;330.73;69.20;;;-2.30;99.90;;;-2.46;98.57;100400.00;4870096;29;20688;-78
2023/03/01 06:27:52;;;;;;;328.00;68.47;;;-2.20;99.90;;;-2.34;98.49;100415.38;4896379;29;20243;-79
2023/03/01 06:30:22;;;;;;;316.70;66.13;;;-2.20;99.90;;;-2.28;98.20;100420.94;4893004;29;20322;-79
2023/03/01 06:32:49;;;;;;;359.70;81.83;;;-2.10;99.90;;;-2.23;98.20;100422.09;4895430;29;20247;-80
2023/03/01 06:35:18;;;;;;;320.93;89.83;;;-2.10;99.90;;;-2.21;98.07;100424.78;4888853;29;20236;-78
2023/03/01 06:37:47;;;;;;;324.43;70.53;;;-2.10;99.90;;;-2.14;98.21;100433.00;4889975;29;20319;-77
2023/03/01 06:43:07;;;;;;;365.30;86.73;;;-2.00;99.90;;;-2.06;98.14;100446.41;4868209;29;20243;-77
2023/03/01 06:45:34;;;;;;;340.43;66.53;;;-1.90;99.90;;;-1.98;97.71;100452.94;4873834;29;20240;-78
2023/03/01 06:48:03;;;;;;;328.73;62.43;;;-1.60;99.90;;;-1.99;97.60;100446.88;4868298;29;20264;-78
2023/03/01 06:50:31;;;;;;;341.40;66.93;;;-1.80;99.90;;;-1.92;97.69;100453.31;4869412;29;20244;-78
2023/03/01 06:52:58;;;;;;;357.23;77.73;;;-1.80;99.90;;;-1.87;97.71;100457.06;4872868;29;20270;-77
2023/03/01 06:55:25;;;;;;;346.53;68.23;;;-1.70;99.90;;;-1.87;97.56;100459.66;4871500;29;20312;-76
2023/03/01 06:57:57;;;;;;;318.47;59.53;;;-1.70;99.90;;;-1.80;97.39;100466.09;4871559;29;20319;-79
2023/03/01 07:00:26;;;;;;;350.20;72.10;;;-1.30;99.90;;;-1.73;97.60;100463.94;4874085;29;20232;-86
2023/03/01 07:02:53;;;;;;;329.53;80.33;;;-1.60;99.90;;;-1.74;96.96;100462.16;4876173;29;20248;-83
2023/03/01 07:05:21;;;;;;;384.53;89.60;;;-1.60;99.90;;;-1.69;97.00;100462.41;4892068;23;20246;-78
2023/03/01 07:07:48;;;;;;;330.63;74.97;;;-0.70;99.90;;;-1.64;96.86;100473.94;4936066;29;20231;-81
2023/03/01 07:10:15;;;;;;;331.67;76.07;;;-0.60;99.90;;;-1.57;96.45;100473.50;4934392;28;20230;-80
2023/03/01 07:12:42;;;;;;;324.53;79.87;;;-1.40;99.90;;;-1.48;96.39;100480.91;4936935;29;20319;-81
2023/03/01 07:15:10;;;;;;;358.77;150.80;;;-1.30;99.90;;;-1.43;96.24;100482.06;4934379;28;20235;-80
2023/03/01 07:17:37;;;;;;;318.80;74.47;;;-1.30;99.90;;;-1.37;96.05;100483.31;4939112;28;20374;-81
2023/03/01 07:20:05;;;;;;;332.07;80.10;;;-1.10;99.90;;;-1.31;95.88;100483.66;4941496;28;20309;-80
2023/03/01 07:22:32;;;;;;;331.50;83.67;;;-1.20;99.90;;;-1.20;95.09;100486.88;4939630;29;20242;-79
2023/03/01 07:24:59;;;;;;;317.37;75.33;;;-1.00;99.90;;;-1.11;94.82;100483.91;4941469;28;20246;-79
2023/03/01 07:27:26;;;;;;;323.17;78.17;;;-1.00;99.90;;;-1.14;94.31;100476.84;4939946;29;20238;-79
2023/03/01 07:29:53;;;;;;;322.23;79.23;;;-0.80;99.90;;;-0.97;93.50;100477.78;4939150;29;20246;-79
2023/03/01 07:32:20;;;;;;;316.97;55.87;;;-0.80;99.90;;;-0.97;93.00;100468.28;4931532;29;20239;-80
2023/03/01 07:34:47;;;;;;;317.53;56.97;;;-0.80;99.90;;;-0.98;92.68;100458.72;4935581;29;20247;-80
2023/03/01 07:37:15;;;;;;;324.73;60.43;;;0.10;99.90;;;-0.89;92.40;100458.34;4939297;29;20238;-81
2023/03/01 07:39:42;;;;;;;317.63;57.17;;;-0.60;99.90;;;-0.85;91.93;100456.81;4936765;29;20277;-80
2023/03/01 07:42:09;;;;;;;313.47;56.60;;;-0.30;99.90;;;-0.84;91.60;100451.69;4935990;29;20243;-80
2023/03/01 07:44:36;;;;;;;309.03;54.80;;;-0.50;99.90;;;-0.77;91.19;100450.31;4935260;29;20253;-80
2023/03/01 07:47:04;;;;;;;330.70;62.57;;;-0.60;99.90;;;-0.65;90.97;100456.19;4932536;29;20257;-80
2023/03/01 07:49:31;;;;;;;312.33;56.50;;;-0.50;99.90;;;-0.65;90.38;100445.78;4937604;28;20296;-80
2023/03/01 07:51:58;;;;;;;313.53;55.87;;;0.60;99.90;;;-0.49;90.32;100456.19;4919789;29;20289;-81
2023/03/01 07:54:26;;;;;;;340.33;64.10;;;-0.40;99.90;;;-0.42;89.70;100450.50;4935712;29;20584;-81
2023/03/01 07:56:54;;;;;;;319.33;58.07;;;0.50;99.90;;;-0.37;89.39;100450.75;4936043;29;20242;-83
2023/03/01 07:59:23;;;;;;;341.53;66.17;;;0.00;99.90;;;-0.26;88.51;100448.69;4935112;28;20265;-81
2023/03/01 08:01:50;;;;;;;324.20;60.73;;;0.30;99.90;;;-0.24;87.70;100426.28;4932544;28;20273;-80
2023/03/01 08:04:17;;;;;;;333.67;64.27;;;-0.10;99.90;;;-0.06;87.18;100416.81;4938196;28;20238;-80
2023/03/01 08:06:44;;;;;;;333.63;64.37;;;0.80;99.90;;;-0.04;86.82;100408.28;4948713;28;20237;-80
2023/03/01 08:09:11;;;;;;;345.33;67.00;;;0.10;99.90;;;-0.09;86.56;100388.97;4952262;28;20241;-80
2023/03/01 08:11:38;;;;;;;319.33;59.60;;;0.10;99.90;;;0.06;86.71;100401.00;4953144;28;20249;-80
2023/03/01 08:14:06;;;;;;;344.87;67.50;;;0.10;99.90;;;0.21;85.61;100388.75;4959030;28;20237;-80
2023/03/01 08:16:35;;;;;;;335.17;64.53;;;0.80;99.90;;;0.32;85.12;100378.06;4954241;28;20229;-80
2023/03/01 08:19:10;;;;;;;337.40;65.23;;;0.60;99.90;;;0.39;83.82;100347.13;4953932;28;20332;-80
2023/03/01 08:21:38;;;;;;;318.73;61.87;;;0.50;99.90;;;0.49;83.13;100325.94;4940352;29;20249;-80
2023/03/01 08:24:07;;;;;;;350.73;71.47;;;1.30;99.90;;;0.57;82.21;100293.38;4950551;28;20234;-80
2023/03/01 08:26:34;;;;;;;334.77;65.70;;;0.70;99.90;;;0.64;81.44;100259.00;4952249;28;20237;-80
2023/03/01 08:29:02;;;;;;;330.73;63.63;;;1.00;99.90;;;0.71;80.58;100227.22;4946534;28;20233;-81
2023/03/01 08:31:38;;;;;;;336.63;67.20;;;1.60;99.90;;;0.79;80.01;100189.41;4954013;28;20296;-81
2023/03/01 08:34:13;;;;;;;345.63;70.37;;;1.60;99.90;;;0.88;79.82;100184.59;4946872;28;20234;-81
2023/03/01 08:36:44;;;;;;;322.90;63.27;;;0.90;99.90;;;0.93;79.13;100167.47;4948236;28;20249;-80
2023/03/01 08:39:15;;;;;;;340.93;68.10;;;1.00;99.90;;;1.05;79.01;100163.59;4948754;28;20268;-81
2023/03/01 08:41:43;;;;;;;328.80;64.63;;;1.40;99.90;;;1.07;78.27;100135.91;4947301;28;20262;-81
2023/03/01 08:44:16;;;;;;;332.30;67.33;;;1.20;99.90;;;1.10;77.65;100108.28;4949903;28;20241;-81
2023/03/01 08:46:45;;;;;;;321.63;64.03;;;1.20;99.90;;;1.12;77.34;100095.34;4952042;28;20325;-81
2023/03/01 08:49:16;;;;;;;356.77;75.73;;;1.30;99.90;;;1.21;76.85;100077.47;4952011;28;20237;-80
2023/03/01 08:51:44;;;;;;;327.53;65.30;;;1.50;99.90;;;1.34;76.53;100066.75;4951310;28;20225;-80
2023/03/01 08:54:18;;;;;;;351.00;72.73;;;1.70;99.90;;;1.46;76.00;100049.00;4947951;28;20241;-80
2023/03/01 08:56:46;;;;;;;333.20;67.27;;;1.80;99.90;;;1.40;75.90;100027.03;4950984;28;20253;-81
2023/03/01 08:59:15;;;;;;;334.00;68.57;;;1.50;99.90;;;1.44;75.20;99998.56;4963756;28;20237;-80
2023/03/01 09:01:46;;;;;;;350.70;74.10;;;1.60;99.90;;;1.51;74.83;99984.94;4953906;28;20256;-80
2023/03/01 09:04:15;;;;;;;333.70;68.70;;;1.70;99.90;;;1.62;74.67;99979.22;4949624;28;20338;-80
2023/03/01 09:06:43;;;;;;;334.70;66.10;;;1.60;99.90;;;1.71;74.70;99977.84;4957565;28;20232;-80
2023/03/01 09:09:16;;;;;;;346.70;74.43;;;1.70;99.90;;;1.70;74.35;99959.53;4938540;28;20289;-81
2023/03/01 09:11:49;;;;;;;316.47;64.73;;;1.70;99.90;;;1.79;74.33;99955.56;4954370;28;20241;-80
2023/03/01 09:14:17;;;;;;;357.93;77.23;;;2.00;99.90;;;1.86;73.68;99943.63;4928506;28;21021;-80
2023/03/01 09:16:44;;;;;;;329.77;67.13;;;2.10;99.90;;;1.91;73.53;99927.31;4967514;28;20237;-80
2023/03/01 09:19:12;;;;;;;355.37;76.47;;;2.00;99.90;;;2.10;73.66;99948.81;4953514;28;20246;-80
2023/03/01 09:21:40;;;;;;;335.63;70.63;;;2.10;99.90;;;2.19;73.37;99938.69;4954742;28;20293;-80
2023/03/01 09:24:15;;;;;;;350.17;74.03;;;2.40;99.90;;;2.28;72.74;99906.81;4954138;28;20328;-80
2023/03/01 09:26:46;;;;;;;377.10;92.23;;;2.30;99.90;;;2.25;72.49;99876.28;4930749;28;20296;-81
2023/03/01 09:29:16;;;;;;;345.20;80.23;;;2.50;99.90;;;2.23;72.18;99860.59;4952992;28;20256;-82
2023/03/01 09:31:43;;;;;;;339.30;74.27;;;2.30;99.90;;;2.32;71.89;99843.47;4957748;28;20252;-80
2023/03/01 09:34:10;;;;;;;333.47;74.13;;;2.30;99.90;;;2.36;71.80;99843.63;4949196;28;20233;-81
2023/03/01 09:36:37;;;;;;;324.80;69.93;;;2.40;99.90;;;2.41;71.77;99842.03;4944215;28;20244;-80
2023/03/01 09:39:08;;;;;;;340.50;79.97;;;2.70;99.90;;;2.52;71.44;99838.03;4954322;28;20261;-81
2023/03/01 09:41:47;;;;;;;326.10;70.70;;;2.50;99.90;;;2.52;70.96;99814.56;4942238;28;20296;-82
2023/03/01 09:44:42;;;;;;;345.47;80.53;;;2.60;99.90;;;2.56;71.12;99818.16;4939696;28;20237;-82
2023/03/01 09:47:20;;;;;;;351.33;83.57;;;2.50;99.90;;;2.60;70.82;99819.13;4951971;28;20234;-81
2023/03/01 09:50:12;;;;;;;337.37;79.07;;;2.70;99.90;;;2.60;70.99;99809.59;4937080;28;20240;-80
2023/03/01 09:53:08;;;;;;;361.53;79.87;;;2.60;99.90;;;2.98;70.79;99829.03;4932580;28;20324;-81
2023/03/01 09:55:59;;;;;;;348.53;76.07;;;2.90;99.90;;;3.05;70.18;99812.69;4925789;28;20240;-81
2023/03/01 09:59:06;;;;;;;342.50;75.10;;;3.00;99.90;;;3.10;69.63;99784.97;4930529;28;20313;-81
2023/03/01 10:02:05;;;;;;;346.33;79.20;;;3.10;99.90;;;3.19;68.96;99747.78;4940576;28;20241;-80
2023/03/01 10:04:55;;;;;;;355.90;80.87;;;3.20;99.90;;;3.20;69.01;99729.53;4905582;28;20277;-81
2023/03/01 10:07:51;;;;;;;357.23;86.27;;;3.30;99.90;;;3.42;68.22;99703.97;4891243;29;20243;-81
2023/03/01 10:10:40;;;;;;;363.60;90.30;;;3.40;99.90;;;3.48;68.13;99699.78;4929330;29;20234;-81
2023/03/01 10:13:17;;;;;;;372.20;111.33;;;3.40;99.90;;;3.72;67.92;99699.50;4908248;29;20238;-81
2023/03/01 10:16:02;;;;;;;346.33;81.13;;;3.60;99.90;;;3.65;67.75;99671.44;4916947;29;20235;-82
2023/03/01 10:18:32;;;;;;;344.50;94.00;;;3.60;99.90;;;3.73;67.55;99661.16;4911993;29;20249;-81